Share

Eutawville, SC

Dingle Pond (KSCSUMME14) Elev 95 ft | 33.51 °N, 80.41 °W | Change Station

Current weather conditions updated 1 second ago

Clear
Clear
58.3 °F
Feels Like 58.3 °F
N
9.2
Wind Variable Wind from West
Gusts 14.5 mph
Sunrise 6:43 AM
Sunset 7:56 PM
Moon Waning Gibbous

Today is forecast to be Much Warmer than yesterday.

Pressure 30.11 in
Visibility 10.0 miles
Clouds Clear
Dew Point 47 °F
Humidity 67%
Rainfall 0.00 in
Snow Depth Not available.
UV 5 out of 16
Pollen 9.30 out of 12
Ozone Good
PM2.5 Good
Flu Activity Local Activity
METAR KMKS 211355Z AUTO 36008G15KT 330V030 10SM CLR 15/10 A3011 RMK AO2

More Conditions Fewer Conditions

Pressure 30.11 in
Visibility 10.0 miles
Clouds Clear
Dew Point 47 °F
Humidity 67%
Rainfall 0.00 in
Snow Depth Not available.
UV 5 out of 16
Pollen 9.30 out of 12
Ozone Good
PM2.5 Good
Flu Activity Local Activity
METAR KMKS 211355Z AUTO 36008G15KT 330V030 10SM CLR 15/10 A3011 RMK AO2

More Conditions Fewer Conditions

10-Day Weather Forecast

Almanac

Astronomy

Apr. 21, 2014 Rise Set
Actual Time 6:43 AM EDT 7:56 PM EDT
Civil Twilight 6:18 AM EDT 8:22 PM EDT
Nautical Twilight 5:47 AM EDT 8:53 PM EDT
Astronomical Twilight 5:15 AM EDT 9:25 PM EDT
Moon 1:21 AM EDT 12:12 PM EDT
Length of Visible Light 14h 04m
Length of Day
13h 12m
Tomorrow will be 1m 54s longer.
Waning Gibbous, 59% of the Moon is Illuminated
Today
Waning Gibbous
Apr 22
Last Quarter
Apr 29
New
May 6
First Quarter
May 14
Full

Today's Extremes

State Highs State Lows

Community

  • Snowy Robin
    Snowy Robin
  • Sun Pillar and Geese
    Sun Pillar and Geese
  • Showers on the Way
    Showers on the Way
  • Easter Morning Fog
    Easter Morning Fog
  • Easter Dance
    Easter Dance

WunderPhotos

Upload Photos

1,703,616 photos uploaded!

Nearby

Air Quality

  Air Quality AQ Index Pollutant
Yesterday Good
OZONE
Yesterday Good
PM2.5
Current Good
PM2.5
Current Good
OZONE
Monday Moderate
OZONE

Snow Depth

Station Depth Elevation
No new snow has been reported.

Coastal Water Temperatures

Place Temperature
No Stations Reporting

Earthquake Activity

City Distance Mag. Time & Date
No recent earthquake activity has been reported nearby.
Minimum magnitude displayed is 2.5.

Nearby Weather Stations

Station Location Temp. Dew Point Humidity Wind Precip. Elev Updated Type
Dingle Pond, Summerton, SC 58.3 °F 47 °F 67% West  at  9.2 mph 0.00 in / hr 95 ft 9:14 AM EDT Rapid Fire
Santee State Park-K9YS, Santee, SC 55.9 °F 49 °F 78% NW  at  5.0 mph 0.00 in / hr 135 ft 9:13 AM EDT Rapid Fire
Jedburg, SC, Summerville, SC 59.7 °F 51 °F 74% NE  at  2.0 mph 0.00 in / hr 82 ft 9:07 AM EDT Normal

Show More Stations Show Fewer Stations

What do you think?

We're not finished. Please let us know what you like, what you don't like, and what you are still missing.